Time;durP1;ratioP1;P1;durP2;ratioP2;P2;SDS_P1;SDS_P2;PMS_P1;PMS_P2;Temp;Humidity;BMP_temperature;BMP_pressure;BME280_temperature;BME280_humidity;BME280_pressure;Samples;Min_cycle;Max_cycle;Signal;HPM_P1;HPM_P2
2022/07/06 00:01:57;;;;;;;1.23;0.80;;;;;;;;;;6206307;23;20024;-63
2022/07/06 00:04:24;;;;;;;1.50;0.90;;;;;;;;;;6207080;23;20020;-63
2022/07/06 00:06:50;;;;;;;1.70;0.90;;;;;;;;;;6206941;23;20024;-63
2022/07/06 00:09:17;;;;;;;7.53;1.40;;;;;;;;;;6210112;23;20054;-63
2022/07/06 00:11:46;;;;;;;1.23;0.90;;;;;;;;;;6205410;23;20020;-63
2022/07/06 00:14:14;;;;;;;2.65;0.90;;;;;;;;;;6211725;23;20020;-63
2022/07/06 00:16:40;;;;;;;1.00;0.70;;;;;;;;;;6204169;23;20073;-63
2022/07/06 00:19:07;;;;;;;3.03;0.90;;;;;;;;;;6210874;23;20035;-63
2022/07/06 00:21:33;;;;;;;0.90;0.70;;;;;;;;;;6207973;23;20012;-63
2022/07/06 00:24:00;;;;;;;1.30;0.90;;;;;;;;;;6211679;23;20051;-63
2022/07/06 00:26:27;;;;;;;1.15;0.77;;;;;;;;;;6211539;23;20027;-63
2022/07/06 00:28:53;;;;;;;2.65;0.90;;;;;;;;;;6206249;23;20027;-63
2022/07/06 00:31:23;;;;;;;2.05;1.02;;;;;;;;;;6211457;23;20020;-63
2022/07/06 00:33:49;;;;;;;1.55;0.80;;;;;;;;;;6207369;23;20024;-63
2022/07/06 00:36:16;;;;;;;5.55;1.30;;;;;;;;;;6211187;23;20138;-63
2022/07/06 00:38:42;;;;;;;3.25;0.90;;;;;;;;;;6206340;23;20027;-63
2022/07/06 00:41:10;;;;;;;1.67;0.70;;;;;;;;;;6212873;23;20024;-62
2022/07/06 00:43:50;;;;;;;2.33;0.82;;;;;;;;;;6211294;23;20020;-63
2022/07/06 00:46:16;;;;;;;2.60;0.88;;;;;;;;;;6237174;23;20286;-63
2022/07/06 00:48:45;;;;;;;2.88;0.90;;;;;;;;;;6212686;23;20020;-63
2022/07/06 00:51:12;;;;;;;1.95;0.73;;;;;;;;;;6208674;23;20028;-63
2022/07/06 00:53:38;;;;;;;2.08;0.90;;;;;;;;;;6213663;23;20102;-63
2022/07/06 00:56:05;;;;;;;1.92;0.73;;;;;;;;;;6207547;23;20024;-63
2022/07/06 00:58:32;;;;;;;2.92;0.90;;;;;;;;;;6212660;23;20425;-63
2022/07/06 01:00:58;;;;;;;5.05;1.17;;;;;;;;;;6208090;23;20012;-63
2022/07/06 01:03:25;;;;;;;1.23;0.70;;;;;;;;;;6205900;23;20043;-63
2022/07/06 01:05:53;;;;;;;2.42;1.10;;;;;;;;;;6210876;23;20085;-62
2022/07/06 01:08:19;;;;;;;1.63;0.85;;;;;;;;;;6209674;23;20012;-63
2022/07/06 01:10:47;;;;;;;3.25;0.82;;;;;;;;;;6213311;23;20019;-62
2022/07/06 01:13:13;;;;;;;2.10;0.90;;;;;;;;;;6206847;23;20024;-63
2022/07/06 01:15:40;;;;;;;2.67;0.85;;;;;;;;;;6239675;23;20074;-63
2022/07/06 01:18:06;;;;;;;3.13;0.80;;;;;;;;;;6207367;23;20016;-63
2022/07/06 01:20:34;;;;;;;1.48;0.60;;;;;;;;;;6213178;23;20016;-63
2022/07/06 01:23:01;;;;;;;1.95;0.80;;;;;;;;;;6208290;23;20016;-62
2022/07/06 01:25:27;;;;;;;1.83;0.85;;;;;;;;;;6213059;23;20028;-62
2022/07/06 01:27:54;;;;;;;1.75;0.88;;;;;;;;;;6213367;23;20020;-63
2022/07/06 01:30:21;;;;;;;6.15;0.93;;;;;;;;;;6208409;23;20074;-63
2022/07/06 01:32:47;;;;;;;1.65;0.95;;;;;;;;;;6212976;23;20086;-62
2022/07/06 01:35:15;;;;;;;3.35;1.05;;;;;;;;;;6207810;23;20024;-62
2022/07/06 01:37:43;;;;;;;1.65;0.77;;;;;;;;;;6212386;23;20095;-62
2022/07/06 01:40:10;;;;;;;0.90;0.65;;;;;;;;;;6208730;23;20028;-63
2022/07/06 01:42:40;;;;;;;3.47;0.82;;;;;;;;;;6212862;23;20024;-62
2022/07/06 01:45:08;;;;;;;1.70;0.70;;;;;;;;;;6210635;23;20020;-63
2022/07/06 01:47:34;;;;;;;2.72;0.93;;;;;;;;;;6210054;23;20024;-63
2022/07/06 01:50:01;;;;;;;1.58;0.90;;;;;;;;;;6238159;23;20024;-63
2022/07/06 01:52:28;;;;;;;1.83;0.90;;;;;;;;;;6207269;23;20024;-63
2022/07/06 01:54:56;;;;;;;3.55;0.80;;;;;;;;;;6212844;23;20019;-63
2022/07/06 01:57:23;;;;;;;1.23;0.70;;;;;;;;;;6207560;23;20032;-63
2022/07/06 01:59:49;;;;;;;2.25;0.85;;;;;;;;;;6212573;23;20054;-63
2022/07/06 02:02:17;;;;;;;0.95;0.60;;;;;;;;;;6209636;23;20324;-63
2022/07/06 02:04:43;;;;;;;3.28;0.80;;;;;;;;;;6212732;23;20012;-63
2022/07/06 02:07:10;;;;;;;3.92;0.85;;;;;;;;;;6213337;23;20024;-63
2022/07/06 02:09:36;;;;;;;1.10;0.75;;;;;;;;;;6210934;23;20024;-63
2022/07/06 02:12:05;;;;;;;1.48;0.80;;;;;;;;;;6213134;23;20027;-62
2022/07/06 02:14:31;;;;;;;1.00;0.60;;;;;;;;;;6235572;23;20024;-62
2022/07/06 02:16:58;;;;;;;2.83;1.13;;;;;;;;;;6238394;23;20077;-63
2022/07/06 02:19:25;;;;;;;1.73;0.70;;;;;;;;;;6210131;23;20016;-62
2022/07/06 02:21:52;;;;;;;3.10;0.98;;;;;;;;;;6238821;23;20024;-62
2022/07/06 02:24:18;;;;;;;1.00;0.75;;;;;;;;;;6209367;23;20031;-63
2022/07/06 02:26:44;;;;;;;0.98;0.57;;;;;;;;;;6212760;23;20023;-62
2022/07/06 02:29:12;;;;;;;0.82;0.60;;;;;;;;;;6209410;23;20020;-63
2022/07/06 02:31:39;;;;;;;2.08;0.80;;;;;;;;;;6212946;23;20032;-63
2022/07/06 02:34:06;;;;;;;1.17;0.65;;;;;;;;;;6213255;23;20023;-63
2022/07/06 02:36:35;;;;;;;2.42;0.95;;;;;;;;;;6209687;23;20035;-63
2022/07/06 02:39:01;;;;;;;2.47;0.90;;;;;;;;;;6212693;23;20049;-63
2022/07/06 02:41:28;;;;;;;1.98;0.75;;;;;;;;;;6235563;23;20027;-62
2022/07/06 02:43:54;;;;;;;2.20;0.85;;;;;;;;;;6213413;23;20031;-62
2022/07/06 02:46:22;;;;;;;1.40;0.68;;;;;;;;;;6209375;23;20044;-63
2022/07/06 02:48:49;;;;;;;0.60;0.60;;;;;;;;;;6238952;23;20016;-63
2022/07/06 02:51:16;;;;;;;0.93;0.70;;;;;;;;;;6210401;23;20074;-63
2022/07/06 02:53:43;;;;;;;1.05;0.70;;;;;;;;;;6212839;23;20020;-63
2022/07/06 02:56:09;;;;;;;2.53;0.82;;;;;;;;;;6208310;23;20047;-62
2022/07/06 02:58:36;;;;;;;2.28;0.90;;;;;;;;;;6212013;23;20050;-63
2022/07/06 03:01:02;;;;;;;3.60;0.90;;;;;;;;;;6208948;23;20070;-63
2022/07/06 03:03:31;;;;;;;1.30;0.60;;;;;;;;;;6232077;23;20082;-63
2022/07/06 03:05:57;;;;;;;1.65;0.68;;;;;;;;;;6203882;23;20086;-63
2022/07/06 03:08:24;;;;;;;3.42;0.85;;;;;;;;;;6208594;23;20067;-63
2022/07/06 03:10:53;;;;;;;2.53;0.90;;;;;;;;;;6231640;23;20020;-63
2022/07/06 03:13:20;;;;;;;1.38;0.70;;;;;;;;;;6208002;23;20021;-62
2022/07/06 03:15:46;;;;;;;3.13;0.80;;;;;;;;;;6232870;23;20052;-63
2022/07/06 03:18:13;;;;;;;1.90;0.80;;;;;;;;;;6206424;23;20020;-63
2022/07/06 03:20:41;;;;;;;3.10;1.42;;;;;;;;;;6232769;23;20036;-63
2022/07/06 03:23:08;;;;;;;2.05;0.65;;;;;;;;;;6204319;23;20033;-63
2022/07/06 03:25:34;;;;;;;2.58;1.00;;;;;;;;;;6207628;23;20024;-63
2022/07/06 03:28:01;;;;;;;4.30;0.98;;;;;;;;;;6204320;23;20025;-63
2022/07/06 03:30:27;;;;;;;3.45;1.10;;;;;;;;;;6233136;23;20028;-63
2022/07/06 03:32:54;;;;;;;3.67;0.95;;;;;;;;;;6229103;23;20028;-63
2022/07/06 03:35:20;;;;;;;1.80;0.82;;;;;;;;;;6208092;23;20020;-63
2022/07/06 03:37:48;;;;;;;5.18;1.48;;;;;;;;;;6204650;23;20021;-63
2022/07/06 03:40:15;;;;;;;5.28;1.00;;;;;;;;;;6233231;23;20071;-63
2022/07/06 03:42:42;;;;;;;1.33;0.80;;;;;;;;;;6229545;23;20030;-63
2022/07/06 03:45:09;;;;;;;5.13;1.35;;;;;;;;;;6207213;23;20055;-63
2022/07/06 03:47:36;;;;;;;1.33;0.70;;;;;;;;;;6203659;23;20099;-63
2022/07/06 03:50:03;;;;;;;1.45;0.88;;;;;;;;;;6207674;23;20043;-63
2022/07/06 03:52:30;;;;;;;1.70;0.80;;;;;;;;;;6203629;23;20020;-63
2022/07/06 03:54:58;;;;;;;1.77;0.85;;;;;;;;;;6207574;23;20031;-63
2022/07/06 03:57:25;;;;;;;2.13;0.60;;;;;;;;;;6205650;23;20024;-63
2022/07/06 03:59:52;;;;;;;2.75;1.10;;;;;;;;;;6232308;23;20028;-63
2022/07/06 04:02:18;;;;;;;2.08;1.10;;;;;;;;;;6235570;23;20032;-63
2022/07/06 04:04:45;;;;;;;4.47;1.35;;;;;;;;;;6208685;23;20090;-64
2022/07/06 04:07:28;;;;;;;2.50;0.90;;;;;;;;;;5014612;27;1387925;-63
2022/07/06 04:09:54;;;;;;;4.38;1.35;;;;;;;;;;5025585;28;20038;-64
2022/07/06 04:12:21;;;;;;;3.17;1.00;;;;;;;;;;5027278;28;20043;-64
2022/07/06 04:14:48;;;;;;;1.30;0.90;;;;;;;;;;5036204;28;20067;-64
2022/07/06 04:19:58;;;;;;;1.27;0.80;;;;;;;;;;5041844;28;20063;-64
2022/07/06 04:22:25;;;;;;;2.40;0.80;;;;;;;;;;5046972;28;20061;-64
2022/07/06 04:24:53;;;;;;;2.00;0.90;;;;;;;;;;5041381;28;20053;-64
2022/07/06 04:27:20;;;;;;;1.40;0.93;;;;;;;;;;5046569;28;20126;-64
2022/07/06 04:29:46;;;;;;;1.58;0.70;;;;;;;;;;5041371;28;20045;-64
2022/07/06 04:32:13;;;;;;;1.15;0.60;;;;;;;;;;5046390;28;20102;-64
2022/07/06 04:34:39;;;;;;;1.75;0.75;;;;;;;;;;5040577;28;20057;-64
2022/07/06 04:37:06;;;;;;;1.13;0.45;;;;;;;;;;5045916;28;20056;-64
2022/07/06 04:39:32;;;;;;;0.70;0.60;;;;;;;;;;5041055;28;20071;-64
2022/07/06 04:42:00;;;;;;;1.38;0.70;;;;;;;;;;5046325;28;20088;-66
2022/07/06 04:44:27;;;;;;;1.98;0.90;;;;;;;;;;5040940;28;20098;-64
2022/07/06 04:46:54;;;;;;;1.02;0.80;;;;;;;;;;5046149;28;20049;-64
2022/07/06 04:49:20;;;;;;;1.27;0.80;;;;;;;;;;5046458;28;20073;-64
2022/07/06 04:51:47;;;;;;;7.97;2.38;;;;;;;;;;5022396;28;20118;-64
2022/07/06 04:54:13;;;;;;;3.85;1.50;;;;;;;;;;5026063;28;20057;-64
2022/07/06 04:56:40;;;;;;;1.80;0.90;;;;;;;;;;5028640;28;20053;-64
2022/07/06 04:59:08;;;;;;;3.03;1.10;;;;;;;;;;5040961;28;20060;-64
2022/07/06 05:01:35;;;;;;;1.48;0.90;;;;;;;;;;5036734;28;20048;-64
2022/07/06 05:04:01;;;;;;;5.70;1.20;;;;;;;;;;5036442;28;20053;-64
2022/07/06 05:06:28;;;;;;;1.33;0.90;;;;;;;;;;5018693;28;20107;-64
2022/07/06 05:08:54;;;;;;;1.27;0.90;;;;;;;;;;5036711;28;20071;-64
2022/07/06 05:11:21;;;;;;;1.92;0.85;;;;;;;;;;5029695;28;20100;-64
2022/07/06 05:13:48;;;;;;;4.60;0.90;;;;;;;;;;5037905;28;20140;-66
2022/07/06 05:16:15;;;;;;;6.13;1.98;;;;;;;;;;5032452;28;20193;-64
2022/07/06 05:18:42;;;;;;;16.33;6.33;;;;;;;;;;5022841;28;20111;-63
2022/07/06 05:21:08;;;;;;;7.63;3.60;;;;;;;;;;5024317;28;20057;-63
2022/07/06 05:23:35;;;;;;;3.75;1.75;;;;;;;;;;5015471;28;20148;-63
2022/07/06 05:26:02;;;;;;;2.25;1.00;;;;;;;;;;5023406;28;20057;-63
2022/07/06 05:28:28;;;;;;;2.97;1.10;;;;;;;;;;5014700;28;20224;-63
2022/07/06 05:30:55;;;;;;;2.33;1.00;;;;;;;;;;5024156;28;20053;-63
2022/07/06 05:33:23;;;;;;;1.13;0.77;;;;;;;;;;5015355;28;20052;-63
2022/07/06 05:35:49;;;;;;;2.73;1.00;;;;;;;;;;5024708;28;20049;-63
2022/07/06 05:38:16;;;;;;;10.68;3.33;;;;;;;;;;5025548;28;20165;-63
2022/07/06 05:40:43;;;;;;;15.55;6.40;;;;;;;;;;5017031;28;20135;-63
2022/07/06 05:43:09;;;;;;;4.28;2.03;;;;;;;;;;5020792;28;20068;-63
2022/07/06 05:45:36;;;;;;;3.28;1.25;;;;;;;;;;5016514;28;20056;-63
2022/07/06 05:50:47;;;;;;;2.53;0.90;;;;;;;;;;5021639;28;20060;-63
2022/07/06 05:53:14;;;;;;;2.33;1.10;;;;;;;;;;5028939;28;20037;-63
2022/07/06 05:55:40;;;;;;;2.53;1.00;;;;;;;;;;5022140;28;20304;-64
2022/07/06 05:58:07;;;;;;;2.35;0.80;;;;;;;;;;5028397;28;20104;-66
2022/07/06 06:00:39;;;;;;;1.67;0.93;;;;;;;;;;5029322;28;20045;-64
2022/07/06 06:03:06;;;;;;;3.38;0.90;;;;;;;;;;5021895;28;20124;-63
2022/07/06 06:05:32;;;;;;;1.90;1.00;;;;;;;;;;5018378;28;20055;-63
2022/07/06 06:08:00;;;;;;;4.72;1.13;;;;;;;;;;5025058;28;20068;-63
2022/07/06 06:10:27;;;;;;;3.72;0.88;;;;;;;;;;5029855;28;20045;-63
2022/07/06 06:12:53;;;;;;;1.55;0.90;;;;;;;;;;5022671;28;20052;-63
2022/07/06 06:15:20;;;;;;;3.80;0.88;;;;;;;;;;5030776;28;20053;-63
2022/07/06 06:17:47;;;;;;;2.17;0.90;;;;;;;;;;5027195;28;20048;-63
2022/07/06 06:20:14;;;;;;;4.22;0.82;;;;;;;;;;5028307;28;20053;-63
2022/07/06 06:22:47;;;;;;;2.50;0.75;;;;;;;;;;5030882;28;20095;-63
2022/07/06 06:25:16;;;;;;;3.38;0.70;;;;;;;;;;5024739;28;20135;-63
2022/07/06 06:27:45;;;;;;;4.43;1.20;;;;;;;;;;5030827;28;20112;-63
2022/07/06 06:30:12;;;;;;;5.32;0.80;;;;;;;;;;5023706;28;20048;-64
2022/07/06 06:32:38;;;;;;;4.82;0.80;;;;;;;;;;5030878;28;20060;-64
2022/07/06 06:35:05;;;;;;;1.90;0.82;;;;;;;;;;5024443;28;20068;-63
2022/07/06 06:37:34;;;;;;;2.22;0.73;;;;;;;;;;5030255;28;20136;-64
2022/07/06 06:40:00;;;;;;;1.85;0.80;;;;;;;;;;5030998;28;20060;-63
2022/07/06 06:42:30;;;;;;;1.73;0.80;;;;;;;;;;5039689;28;20084;-63
2022/07/06 06:44:57;;;;;;;2.95;0.77;;;;;;;;;;5030509;28;20048;-63
2022/07/06 06:47:23;;;;;;;3.65;0.95;;;;;;;;;;5025218;28;20056;-64
2022/07/06 06:49:50;;;;;;;1.85;0.85;;;;;;;;;;5030688;28;20053;-63
2022/07/06 06:52:18;;;;;;;3.00;0.90;;;;;;;;;;5024729;28;20126;-63
2022/07/06 06:54:45;;;;;;;3.23;0.93;;;;;;;;;;5029803;28;20049;-63
2022/07/06 06:57:12;;;;;;;3.88;0.77;;;;;;;;;;5025979;28;20063;-63
2022/07/06 06:59:40;;;;;;;4.15;0.80;;;;;;;;;;5028057;28;20056;-64
2022/07/06 07:02:07;;;;;;;1.45;0.80;;;;;;;;;;5030415;28;20139;-62
2022/07/06 07:04:34;;;;;;;0.68;0.65;;;;;;;;;;5024720;28;20059;-63
2022/07/06 07:07:00;;;;;;;2.95;0.80;;;;;;;;;;5029993;28;20061;-63
2022/07/06 07:09:27;;;;;;;3.92;0.70;;;;;;;;;;5023728;28;20052;-63
2022/07/06 07:11:55;;;;;;;6.93;0.85;;;;;;;;;;5029757;28;20053;-63
2022/07/06 07:14:21;;;;;;;2.63;0.70;;;;;;;;;;5024796;28;20147;-63
2022/07/06 07:16:49;;;;;;;3.47;0.70;;;;;;;;;;5030083;28;20064;-63
2022/07/06 07:19:16;;;;;;;4.88;0.80;;;;;;;;;;5029915;28;20045;-63
2022/07/06 07:21:43;;;;;;;3.55;0.80;;;;;;;;;;5025523;28;20140;-63
2022/07/06 07:24:09;;;;;;;3.38;0.82;;;;;;;;;;5030034;28;20073;-63
2022/07/06 07:26:36;;;;;;;3.28;0.63;;;;;;;;;;5023512;28;20126;-62
2022/07/06 07:29:03;;;;;;;2.70;0.80;;;;;;;;;;5029994;28;20044;-63
2022/07/06 07:31:32;;;;;;;6.45;0.88;;;;;;;;;;5023986;28;20223;-62
2022/07/06 07:33:58;;;;;;;;;;;;;;;;;;5030904;28;20049;-63
2022/07/06 07:36:26;;;;;;;1.23;0.60;;;;;;;;;;5024031;28;19984;-63
2022/07/06 07:38:53;;;;;;;3.00;0.50;;;;;;;;;;5029958;28;20052;-63
2022/07/06 07:41:19;;;;;;;1.85;0.68;;;;;;;;;;5022410;28;20048;-63
2022/07/06 07:43:46;;;;;;;1.75;0.65;;;;;;;;;;5029655;28;20135;-63
2022/07/06 07:46:13;;;;;;;1.55;0.52;;;;;;;;;;5023061;28;20064;-63
2022/07/06 07:48:39;;;;;;;5.78;1.10;;;;;;;;;;5030294;28;20140;-63
2022/07/06 07:51:08;;;;;;;14.77;1.10;;;;;;;;;;5023771;28;20053;-63
2022/07/06 07:53:34;;;;;;;;;;;;;;;;;;5022606;28;20053;-62
2022/07/06 07:56:02;;;;;;;2.58;0.70;;;;;;;;;;5007100;28;19936;-63
2022/07/06 07:58:29;;;;;;;6.00;0.70;;;;;;;;;;5029998;28;20060;-62
2022/07/06 08:00:55;;;;;;;2.17;0.68;;;;;;;;;;5027033;28;20045;-63
2022/07/06 08:03:22;;;;;;;1.05;0.50;;;;;;;;;;5026757;28;20135;-63
2022/07/06 08:05:49;;;;;;;3.47;0.50;;;;;;;;;;5027934;28;20060;-63
2022/07/06 08:08:15;;;;;;;1.55;0.70;;;;;;;;;;5037144;28;20118;-63
2022/07/06 08:10:42;;;;;;;2.55;0.57;;;;;;;;;;5042525;28;20045;-62
2022/07/06 08:13:10;;;;;;;1.63;0.65;;;;;;;;;;5039465;28;20053;-63
2022/07/06 08:15:37;;;;;;;1.52;0.70;;;;;;;;;;5046228;28;20049;-63
2022/07/06 08:18:03;;;;;;;5.43;0.88;;;;;;;;;;5039654;28;20126;-63
2022/07/06 08:20:30;;;;;;;0.70;0.40;;;;;;;;;;5045920;28;20102;-63
2022/07/06 08:22:56;;;;;;;0.93;0.65;;;;;;;;;;5041327;28;20143;-62
2022/07/06 08:25:23;;;;;;;2.85;0.57;;;;;;;;;;5044370;28;20057;-63
2022/07/06 08:27:50;;;;;;;2.85;0.40;;;;;;;;;;5045670;28;20049;-63
2022/07/06 08:30:18;;;;;;;2.35;0.80;;;;;;;;;;5039372;28;20055;-63
2022/07/06 08:32:45;;;;;;;3.03;0.70;;;;;;;;;;5045508;28;20049;-63
2022/07/06 08:35:12;;;;;;;4.95;0.75;;;;;;;;;;5039110;28;20057;-63
2022/07/06 08:37:38;;;;;;;0.95;0.50;;;;;;;;;;5045637;28;20084;-63
2022/07/06 08:40:07;;;;;;;3.75;0.60;;;;;;;;;;5039763;28;20065;-63
2022/07/06 08:42:34;;;;;;;4.90;0.60;;;;;;;;;;5045652;28;20148;-63
2022/07/06 08:45:01;;;;;;;2.83;0.57;;;;;;;;;;5043669;28;20139;-63
2022/07/06 08:47:30;;;;;;;1.10;0.73;;;;;;;;;;5041704;28;20122;-63
2022/07/06 08:49:57;;;;;;;0.30;0.30;;;;;;;;;;5046179;28;20057;-63
2022/07/06 08:52:25;;;;;;;0.80;0.52;;;;;;;;;;5038264;28;20091;-63
2022/07/06 08:54:52;;;;;;;2.08;0.50;;;;;;;;;;5049360;28;20072;-63
2022/07/06 08:57:19;;;;;;;1.67;0.70;;;;;;;;;;5043505;28;20049;-63
2022/07/06 08:59:45;;;;;;;2.97;0.70;;;;;;;;;;5049757;28;20095;-63
2022/07/06 09:02:13;;;;;;;0.95;0.50;;;;;;;;;;5044482;28;20053;-63
2022/07/06 09:04:44;;;;;;;1.55;0.40;;;;;;;;;;5034247;28;20107;-63
2022/07/06 09:07:10;;;;;;;1.08;0.50;;;;;;;;;;5049018;28;20060;-63
2022/07/06 09:09:38;;;;;;;1.67;0.47;;;;;;;;;;5032535;28;20037;-63
2022/07/06 09:12:05;;;;;;;1.38;0.60;;;;;;;;;;5029235;28;20067;-63
2022/07/06 09:14:32;;;;;;;2.97;0.52;;;;;;;;;;5032428;28;20134;-63
2022/07/06 09:17:03;;;;;;;3.42;0.30;;;;;;;;;;5049044;28;20048;-63
2022/07/06 09:19:31;;;;;;;0.65;0.40;;;;;;;;;;5043077;28;20063;-64
2022/07/06 09:21:59;;;;;;;0.40;0.35;;;;;;;;;;5049313;28;20059;-63
2022/07/06 09:24:26;;;;;;;1.70;0.50;;;;;;;;;;5046273;28;20057;-63
2022/07/06 09:26:55;;;;;;;3.30;0.50;;;;;;;;;;5045004;28;20052;-62
2022/07/06 09:29:25;;;;;;;1.05;0.30;;;;;;;;;;5048929;28;20107;-63
2022/07/06 09:32:02;;;;;;;0.63;0.40;;;;;;;;;;5043214;28;20158;-63
2022/07/06 09:34:41;;;;;;;3.25;0.60;;;;;;;;;;5050087;28;20079;-63
2022/07/06 09:37:10;;;;;;;0.40;0.40;;;;;;;;;;5042896;28;20048;-63
2022/07/06 09:39:36;;;;;;;3.67;0.40;;;;;;;;;;5048494;28;20087;-63
2022/07/06 09:42:04;;;;;;;2.45;0.60;;;;;;;;;;5042529;28;20114;-63
2022/07/06 09:44:31;;;;;;;8.05;0.70;;;;;;;;;;5048292;28;20045;-63
2022/07/06 09:47:00;;;;;;;2.00;0.60;;;;;;;;;;5044746;28;20111;-63
2022/07/06 09:49:27;;;;;;;0.50;0.40;;;;;;;;;;5046551;28;20068;-63
2022/07/06 09:51:54;;;;;;;3.42;0.70;;;;;;;;;;5048440;28;20061;-63
2022/07/06 09:54:23;;;;;;;2.45;0.60;;;;;;;;;;5042388;28;20053;-63
2022/07/06 09:56:51;;;;;;;2.78;0.50;;;;;;;;;;5048329;28;20053;-63
2022/07/06 09:59:19;;;;;;;0.85;0.30;;;;;;;;;;5041955;28;20049;-63
2022/07/06 10:01:46;;;;;;;1.65;0.40;;;;;;;;;;5048060;28;20049;-63
2022/07/06 10:04:13;;;;;;;1.48;0.50;;;;;;;;;;5042125;28;20052;-63
2022/07/06 10:06:41;;;;;;;2.08;0.60;;;;;;;;;;5047920;28;20102;-63
2022/07/06 10:09:08;;;;;;;1.52;0.55;;;;;;;;;;5047832;28;20102;-63
2022/07/06 10:11:39;;;;;;;2.35;0.50;;;;;;;;;;5043205;28;20072;-64
2022/07/06 10:14:07;;;;;;;4.13;0.68;;;;;;;;;;5048305;28;20057;-63
2022/07/06 10:16:34;;;;;;;1.40;0.40;;;;;;;;;;5041176;28;20392;-63
2022/07/06 10:19:02;;;;;;;3.38;0.40;;;;;;;;;;5047485;28;20069;-63
2022/07/06 10:21:29;;;;;;;3.45;0.43;;;;;;;;;;5041831;28;20045;-63
2022/07/06 10:23:59;;;;;;;2.25;0.70;;;;;;;;;;5047543;28;20059;-63
2022/07/06 10:26:26;;;;;;;2.05;0.60;;;;;;;;;;5041545;28;20052;-63
2022/07/06 10:28:54;;;;;;;0.75;0.40;;;;;;;;;;5047504;28;20103;-63
2022/07/06 10:31:21;;;;;;;0.65;0.40;;;;;;;;;;5041536;28;20110;-63
2022/07/06 10:33:48;;;;;;;1.50;0.50;;;;;;;;;;5047968;28;20077;-63
2022/07/06 10:36:16;;;;;;;6.50;0.70;;;;;;;;;;5042247;28;20052;-63
2022/07/06 10:38:47;;;;;;;4.47;0.63;;;;;;;;;;5048126;28;20053;-63
2022/07/06 10:41:14;;;;;;;4.13;0.63;;;;;;;;;;5042493;28;20052;-63
2022/07/06 10:43:43;;;;;;;1.02;0.50;;;;;;;;;;5046741;28;20049;-63
2022/07/06 10:46:11;;;;;;;2.33;0.77;;;;;;;;;;5047645;28;20040;-63
2022/07/06 10:48:39;;;;;;;0.75;0.50;;;;;;;;;;5041729;28;20057;-63
2022/07/06 10:51:05;;;;;;;2.67;0.50;;;;;;;;;;5047584;28;20094;-63
2022/07/06 10:53:34;;;;;;;1.60;0.50;;;;;;;;;;5041312;28;20045;-63
2022/07/06 10:56:01;;;;;;;0.40;0.40;;;;;;;;;;5047492;28;20052;-63
2022/07/06 10:58:42;;;;;;;1.33;0.55;;;;;;;;;;5041170;28;20063;-63
2022/07/06 11:01:09;;;;;;;1.83;0.63;;;;;;;;;;5046964;28;20061;-63
2022/07/06 11:03:38;;;;;;;1.23;0.70;;;;;;;;;;5041462;28;20053;-63
2022/07/06 11:06:09;;;;;;;1.42;0.60;;;;;;;;;;5046744;28;20045;-63
2022/07/06 11:08:42;;;;;;;1.25;0.55;;;;;;;;;;5030564;28;20057;-64
2022/07/06 11:11:14;;;;;;;3.92;1.27;;;;;;;;;;5026496;28;20106;-63
2022/07/06 11:13:48;;;;;;;0.40;0.40;;;;;;;;;;5031741;28;20071;-64
2022/07/06 11:16:15;;;;;;;0.90;0.52;;;;;;;;;;5046539;28;20068;-63
2022/07/06 11:18:46;;;;;;;1.05;0.60;;;;;;;;;;5040680;28;20168;-63
2022/07/06 11:21:20;;;;;;;1.75;0.70;;;;;;;;;;5046295;28;20056;-63
2022/07/06 11:23:48;;;;;;;2.72;1.10;;;;;;;;;;5041307;28;20120;-64
2022/07/06 11:26:15;;;;;;;3.55;0.80;;;;;;;;;;5046724;28;20059;-64
2022/07/06 11:28:41;;;;;;;1.92;0.60;;;;;;;;;;5041071;28;20052;-64
2022/07/06 11:31:09;;;;;;;3.08;0.70;;;;;;;;;;5047006;28;20110;-64
2022/07/06 11:33:35;;;;;;;0.43;0.43;;;;;;;;;;5040455;28;20053;-63
2022/07/06 11:36:14;;;;;;;2.03;0.70;;;;;;;;;;5046845;28;20045;-63
2022/07/06 11:38:40;;;;;;;;;;;;;;;;;;5041862;28;20140;-64
2022/07/06 11:41:06;;;;;;;2.25;0.55;;;;;;;;;;5046383;28;19928;-63
2022/07/06 11:43:33;;;;;;;2.78;0.55;;;;;;;;;;5046630;28;20049;-63
2022/07/06 11:45:59;;;;;;;4.55;0.93;;;;;;;;;;5022055;28;20054;-63
2022/07/06 11:48:26;;;;;;;5.40;0.60;;;;;;;;;;5026242;28;20053;-63
2022/07/06 11:51:00;;;;;;;2.80;0.68;;;;;;;;;;5022087;28;20111;-64
2022/07/06 11:53:28;;;;;;;0.95;0.50;;;;;;;;;;5032921;28;20040;-63
2022/07/06 11:55:54;;;;;;;2.40;0.75;;;;;;;;;;5025069;28;20107;-64
2022/07/06 11:58:22;;;;;;;2.78;0.70;;;;;;;;;;5025973;28;20049;-64
2022/07/06 12:01:05;;;;;;;0.93;0.50;;;;;;;;;;5033338;28;20061;-64
2022/07/06 12:03:32;;;;;;;2.00;0.98;;;;;;;;;;5045330;28;20048;-64
2022/07/06 12:05:59;;;;;;;4.93;0.52;;;;;;;;;;5028584;28;20050;-64
2022/07/06 12:08:25;;;;;;;2.00;0.57;;;;;;;;;;5026090;28;20057;-64
2022/07/06 12:10:54;;;;;;;1.95;0.50;;;;;;;;;;5021234;28;20041;-64
2022/07/06 12:13:20;;;;;;;6.25;0.50;;;;;;;;;;5025929;28;20069;-64
2022/07/06 12:15:47;;;;;;;1.10;0.50;;;;;;;;;;5014605;28;20052;-64
2022/07/06 12:18:13;;;;;;;1.23;0.50;;;;;;;;;;5026155;28;20061;-64
2022/07/06 12:20:40;;;;;;;1.35;0.40;;;;;;;;;;5036941;28;20052;-64
2022/07/06 12:23:07;;;;;;;0.73;0.40;;;;;;;;;;5046614;28;20049;-64
2022/07/06 12:25:34;;;;;;;2.70;0.70;;;;;;;;;;5037669;28;20057;-64
2022/07/06 12:28:03;;;;;;;1.80;0.60;;;;;;;;;;5027811;28;20049;-64
2022/07/06 12:30:30;;;;;;;4.88;0.75;;;;;;;;;;5025907;28;20140;-64
2022/07/06 12:33:14;;;;;;;1.10;0.43;;;;;;;;;;5050015;28;20075;-64
2022/07/06 12:35:40;;;;;;;4.43;0.75;;;;;;;;;;5045171;28;20053;-64
2022/07/06 12:38:07;;;;;;;0.63;0.47;;;;;;;;;;5048118;28;20044;-64
2022/07/06 12:40:34;;;;;;;3.17;0.50;;;;;;;;;;5050374;28;20061;-64
2022/07/06 12:43:00;;;;;;;2.47;0.50;;;;;;;;;;5032740;28;20049;-63
2022/07/06 12:45:29;;;;;;;3.72;0.60;;;;;;;;;;5049636;28;20045;-64
2022/07/06 12:47:59;;;;;;;3.80;0.95;;;;;;;;;;5029457;28;20061;-64
2022/07/06 12:50:32;;;;;;;2.83;0.80;;;;;;;;;;5029271;28;20053;-64
2022/07/06 12:52:59;;;;;;;3.50;0.52;;;;;;;;;;5035281;28;20115;-64
2022/07/06 12:55:26;;;;;;;2.60;0.50;;;;;;;;;;5029940;28;20060;-64
2022/07/06 12:57:53;;;;;;;6.15;0.65;;;;;;;;;;5036240;28;20052;-64
2022/07/06 13:00:21;;;;;;;2.00;0.50;;;;;;;;;;5049432;28;20053;-64
2022/07/06 13:02:53;;;;;;;3.88;0.60;;;;;;;;;;5043555;28;20052;-63
2022/07/06 13:05:27;;;;;;;1.85;0.50;;;;;;;;;;5048885;28;20171;-64
2022/07/06 13:07:55;;;;;;;1.65;0.88;;;;;;;;;;5019811;28;20049;-64
2022/07/06 13:10:22;;;;;;;2.88;0.47;;;;;;;;;;5032244;28;20177;-64
2022/07/06 13:12:48;;;;;;;2.72;0.80;;;;;;;;;;5042957;28;20051;-64
2022/07/06 13:15:15;;;;;;;1.02;0.40;;;;;;;;;;5049128;28;20299;-64
2022/07/06 13:17:42;;;;;;;2.50;0.70;;;;;;;;;;5043689;28;20130;-64
2022/07/06 13:20:12;;;;;;;5.53;0.50;;;;;;;;;;5048600;28;20099;-64
2022/07/06 13:22:39;;;;;;;1.45;0.40;;;;;;;;;;5043653;28;20052;-64
2022/07/06 13:25:07;;;;;;;2.50;0.43;;;;;;;;;;5048905;28;20048;-64
2022/07/06 13:27:33;;;;;;;1.17;0.50;;;;;;;;;;5048813;28;20041;-64
2022/07/06 13:30:00;;;;;;;3.22;0.50;;;;;;;;;;5043534;28;20135;-64
2022/07/06 13:32:26;;;;;;;2.60;0.60;;;;;;;;;;5048676;28;20053;-64
2022/07/06 13:34:53;;;;;;;2.33;0.60;;;;;;;;;;5042984;28;20060;-64
2022/07/06 13:37:21;;;;;;;3.72;0.70;;;;;;;;;;5048751;28;20132;-64
2022/07/06 13:39:48;;;;;;;;;;;;;;;;;;5029274;28;20057;-64
2022/07/06 13:42:14;;;;;;;5.20;0.60;;;;;;;;;;5028941;28;19920;-64
2022/07/06 13:44:40;;;;;;;1.33;0.60;;;;;;;;;;5033795;28;20057;-64
2022/07/06 13:47:07;;;;;;;0.85;0.38;;;;;;;;;;5048834;28;20107;-64
2022/07/06 13:49:34;;;;;;;4.68;0.60;;;;;;;;;;5043418;28;20060;-64
2022/07/06 13:52:03;;;;;;;1.25;0.65;;;;;;;;;;5048761;28;20094;-64
2022/07/06 13:54:31;;;;;;;4.32;0.60;;;;;;;;;;5032825;28;20049;-64
2022/07/06 13:56:58;;;;;;;2.72;0.60;;;;;;;;;;5048492;28;20080;-64
2022/07/06 13:59:24;;;;;;;2.45;0.70;;;;;;;;;;5042138;28;20136;-64
2022/07/06 14:01:51;;;;;;;2.03;0.60;;;;;;;;;;5048718;28;20045;-64
2022/07/06 14:04:17;;;;;;;1.45;0.55;;;;;;;;;;5036429;28;20049;-64
2022/07/06 14:06:44;;;;;;;1.52;0.52;;;;;;;;;;5047695;28;20511;-64
2022/07/06 14:09:11;;;;;;;2.50;0.57;;;;;;;;;;5038783;28;20050;-64
2022/07/06 14:11:38;;;;;;;2.33;0.63;;;;;;;;;;5041590;28;20071;-64
2022/07/06 14:14:07;;;;;;;0.43;0.30;;;;;;;;;;5048283;28;20049;-64
2022/07/06 14:16:35;;;;;;;2.83;0.60;;;;;;;;;;5040194;28;20053;-64
2022/07/06 14:19:01;;;;;;;2.85;0.63;;;;;;;;;;5048170;28;20060;-64
2022/07/06 14:21:28;;;;;;;1.55;0.60;;;;;;;;;;5041355;28;20060;-64
2022/07/06 14:23:54;;;;;;;4.00;1.50;;;;;;;;;;5047666;28;20061;-65
2022/07/06 14:26:21;;;;;;;3.72;0.65;;;;;;;;;;5044198;28;20210;-64
2022/07/06 14:28:49;;;;;;;1.75;0.70;;;;;;;;;;5026316;28;20103;-64
2022/07/06 14:31:18;;;;;;;1.00;0.63;;;;;;;;;;5027789;28;20077;-64
2022/07/06 14:33:46;;;;;;;2.47;0.70;;;;;;;;;;5040339;28;20052;-64
2022/07/06 14:36:13;;;;;;;2.42;0.60;;;;;;;;;;5047600;28;20134;-64
2022/07/06 14:38:39;;;;;;;2.03;0.60;;;;;;;;;;5041354;28;20131;-64
2022/07/06 14:41:06;;;;;;;2.03;0.60;;;;;;;;;;5047472;28;20056;-64
2022/07/06 14:43:32;;;;;;;3.13;0.70;;;;;;;;;;5041161;28;20080;-64
2022/07/06 14:46:01;;;;;;;3.33;0.60;;;;;;;;;;5046820;28;20068;-63
2022/07/06 14:48:27;;;;;;;;;;;;;;;;;;5047459;28;20052;-64
2022/07/06 14:50:54;;;;;;;2.00;0.60;;;;;;;;;;5040448;28;19925;-64